ADDS METAR Data INFO
IDs: Format: Raw Decoded Include TAF

Data at: 1956 UTC 15 Dec 2017

KDBQ 151953Z 25011KT 10SM OVC038 M01/M03 A2985 RMK AO2 SLP122 T10061033
KDBQ 151922Z 26012KT 10SM SCT017 BKN043 OVC050 M01/M04 A2987 RMK AO2 T10061039
KDBQ 151853Z 25013KT 10SM BKN016 BKN028 OVC047 M01/M04 A2988 RMK AO2 SLP130 T10111039
KDBQ 151753Z 25015KT 10SM OVC019 M02/M05 A2989 RMK AO2 SLP136 T10171050 11017 21061 58010
KDBQ 151653Z 25012KT 9SM OVC023 M03/M06 A2992 RMK AO2 SLP146 T10281056
KDBQ 151622Z 25014KT 7SM BKN022 BKN038 OVC047 M03/M06 A2993 RMK AO2 T10281056
KDBQ 151553Z 25013KT 10SM OVC037 M03/M06 A2992 RMK AO2 SLP148 T10281061
KDBQ 151517Z 25013KT 10SM OVC039 M03/M07 A2993 RMK AO2 T10331067
KDBQ 151500Z 25012KT 10SM BKN029 BKN042 M03/M07 A2992 RMK AO2 T10331067
KDBQ 151453Z 25011KT 10SM SCT029 BKN042 M03/M07 A2992 RMK AO2 SLP148 T10331067 58002
KDBQ 151429Z 26007KT 10SM BKN027 OVC042 M04/M07 A2993 RMK AO2 T10441072
KDBQ 151353Z 26009KT 10SM OVC034 M04/M07 A2994 RMK AO2 SLP153 T10441072
KDBQ 151253Z 29010KT 10SM FEW029 OVC037 M04/M08 A2995 RMK AO2 SLP158 T10441078
KDBQ 151153Z 27009KT 10SM CLR M06/M09 A2993 RMK AO2 SLP152 T10611089 11039 21061 57005
KDBQ 151053Z AUTO 28013KT 10SM OVC040 M05/M09 A2994 RMK AO2 SLP152 T10501089
KDBQ 150953Z AUTO 30011KT 10SM OVC038 M05/M09 A2994 RMK AO2 SLP154 T10501089
KDBQ 150928Z AUTO 30015KT 10SM FEW021 SCT027 OVC036 M04/M09 A2995 RMK AO2 T10441089
KDBQ 150853Z AUTO 29014KT 10SM OVC020 M04/M07 A2995 RMK AO2 SLP155 T10391072 56013
KDBQ 150753Z AUTO 31011KT 10SM OVC018 M04/M08 A2996 RMK AO2 SLP160 T10441078
KDBQ 150653Z AUTO 29010KT 10SM OVC018 M04/M07 A2996 RMK AO2 SLP162 T10391072
KDBQ 150622Z AUTO 29011KT 10SM BKN022 OVC030 M04/M07 A2997 RMK AO2 T10391072
KDBQ 150604Z AUTO 28009KT 10SM FEW019 SCT026 OVC032 M04/M07 A2998 RMK AO2 T10391072
KDBQ 150553Z AUTO 27012KT 10SM BKN019 OVC034 M04/M07 A2998 RMK AO2 SLP169 T10391072 11039 21050 410331117 58009
KDBQ 150522Z AUTO 27008KT 10SM BKN018 OVC036 M04/M08 A2999 RMK AO2 T10441078
KDBQ 150505Z AUTO 26009KT 10SM SCT018 OVC037 M04/M08 A2999 RMK AO2 T10441078
KDBQ 150453Z AUTO 26009KT 10SM BKN018 OVC037 M04/M08 A3000 RMK AO2 SLP175 T10441078
KDBQ 150353Z AUTO 23008KT 10SM OVC021 M05/M08 A3000 RMK AO2 SLP178 T10501083
KDBQ 150310Z AUTO 22008KT 10SM BKN025 OVC090 M05/M09 A3001 RMK AO2 T10501089
KDBQ 150253Z AUTO 23008KT 10SM FEW025 OVC090 M05/M09 A3001 RMK AO2 SLP180 T10501089 58008
KDBQ 150153Z 24006KT 10SM OVC023 M05/M09 A3003 RMK AO2 SLP188 T10501089
KDBQ 150053Z 27009KT 10SM OVC024 M04/M09 A3004 RMK AO2 SLP191 T10441089
KDBQ 142353Z 26011KT 10SM OVC025 M04/M09 A3004 RMK AO2 SLP189 T10441089 11033 21056 50003
KDBQ 142309Z 25007KT 10SM OVC028 M04/M09 A3004 RMK AO2 T10441089
KDBQ 142253Z 26007KT 10SM BKN028 M04/M09 A3004 RMK AO2 SLP190 T10441089
KDBQ 142206Z 26006KT 10SM BKN028 M04/M09 A3004 RMK AO2 T10441094
KDBQ 142153Z 26006KT 10SM SCT028 M04/M09 A3003 RMK AO2 SLP187 T10441094
KDBQ 142053Z 27005KT 10SM CLR M03/M11 A3003 RMK AO2 SLP184 T10331106 57009
KDBQ 141953Z 22004KT 10SM CLR M04/M11 A3004 RMK AO2 SLP187 T10391111
KDBQ 141853Z VRB03KT 10SM CLR M04/M12 A3004 RMK AO2 SLP190 T10441117
KDBQ 141753Z 20003KT 10SM CLR M06/M12 A3005 RMK AO2 SLP194 T10561117 11056 21117 58003
KDBQ 141653Z VRB03KT 10SM CLR M06/M12 A3007 RMK AO2 SLP202 T10611117
KDBQ 141553Z 00000KT 10SM CLR M08/M11 A3008 RMK AO2 SLP203 T10781106
KDBQ 141453Z 00000KT 10SM CLR M08/M10 A3006 RMK AO2 SLP197 T10781100 51019
KDBQ 141353Z 34003KT 10SM CLR M09/M11 A3004 RMK AO2 SLP191 T10941111
KDBQ 141253Z 33003KT 10SM CLR M11/M13 A3004 RMK AO2 PRESRR SLP190 T11111128
KDBQ 141153Z 03004KT 10SM CLR M09/M11 A3000 RMK AO2 SLP178 T10941111 11061 21094 53016
KDBQ 141109Z AUTO 03005KT 10SM SCT018 M08/M11 A2998 RMK AO2 T10831111
KDBQ 141053Z AUTO 03007KT 10SM BKN018 M08/M11 A2998 RMK AO2 SLP168 T10781106
KDBQ 140953Z AUTO 02004KT 10SM OVC019 M07/M11 A2997 RMK AO2 SLP164 T10671106
KDBQ 140853Z AUTO 05008KT 10SM OVC017 M07/M10 A2996 RMK AO2 SLP159 T10671100 52023